createdAt,value
2019-02-28T00:00:54.386Z,5.47
2019-02-28T00:03:21.604Z,5.70
2019-02-28T00:05:48.826Z,5.50
2019-02-28T00:08:16.050Z,5.40
2019-02-28T00:10:43.273Z,6.40
2019-02-28T00:13:10.848Z,7.93
2019-02-28T00:15:38.072Z,6.70
2019-02-28T00:18:05.657Z,4.93
2019-02-28T00:20:32.890Z,7.67
2019-02-28T00:23:00.188Z,5.93
2019-02-28T00:25:27.443Z,5.77
2019-02-28T00:27:54.978Z,7.07
2019-02-28T00:30:22.234Z,6.80
2019-02-28T00:32:49.516Z,6.23
2019-02-28T00:35:16.774Z,5.57
2019-02-28T00:37:44.403Z,5.73
2019-02-28T00:40:11.949Z,6.13
2019-02-28T00:42:39.507Z,5.33
2019-02-28T00:45:07.272Z,9.37
2019-02-28T00:47:34.492Z,5.93
2019-02-28T00:50:01.999Z,7.53
2019-02-28T00:52:29.230Z,7.93
2019-02-28T00:54:58.369Z,8.03
2019-02-28T00:57:25.590Z,10.40
2019-02-28T00:59:52.837Z,8.20
2019-02-28T01:02:20.047Z,6.53
2019-02-28T01:04:47.292Z,8.80
2019-02-28T01:07:16.277Z,8.17
2019-02-28T01:09:43.992Z,9.50
2019-02-28T01:12:11.204Z,6.00
2019-02-28T01:14:38.575Z,8.97
2019-02-28T01:17:05.912Z,6.77
2019-02-28T01:19:33.023Z,10.57
2019-02-28T01:22:00.761Z,7.80
2019-02-28T01:24:27.999Z,6.23
2019-02-28T01:26:55.264Z,7.73
2019-02-28T01:29:22.535Z,7.00
2019-02-28T01:31:49.780Z,8.60
2019-02-28T01:34:17.008Z,9.13
2019-02-28T01:36:45.920Z,11.47
2019-02-28T01:39:13.699Z,9.87
2019-02-28T01:41:42.338Z,10.93
2019-02-28T01:44:10.077Z,9.63
2019-02-28T01:46:37.323Z,9.10
2019-02-28T01:49:04.546Z,10.90
2019-02-28T01:51:35.640Z,11.73
2019-02-28T01:54:00.916Z,8.97
2019-02-28T01:56:28.423Z,6.80
2019-02-28T01:58:55.644Z,7.77
2019-02-28T02:01:23.236Z,9.30
2019-02-28T02:03:50.460Z,8.57
2019-02-28T02:06:17.700Z,8.83
2019-02-28T02:08:44.916Z,9.57
2019-02-28T02:11:12.452Z,9.10
2019-02-28T02:13:39.683Z,9.00
2019-02-28T02:16:07.020Z,9.00
2019-02-28T02:18:34.612Z,10.67
2019-02-28T02:21:02.182Z,9.47
2019-02-28T02:23:29.435Z,11.27
2019-02-28T02:25:57.095Z,11.07
2019-02-28T02:28:27.030Z,10.50
2019-02-28T02:30:53.842Z,8.50
2019-02-28T02:33:21.122Z,9.13
2019-02-28T02:35:48.497Z,11.97
2019-02-28T02:38:15.714Z,10.10
2019-02-28T02:40:42.999Z,10.37
2019-02-28T02:43:10.605Z,9.50
2019-02-28T02:45:41.701Z,9.57
2019-02-28T02:48:07.022Z,10.53
2019-02-28T02:50:35.933Z,13.07
2019-02-28T02:53:05.451Z,10.47
2019-02-28T02:55:32.527Z,11.60
2019-02-28T02:57:59.762Z,11.60
2019-02-28T03:00:27.068Z,13.53
2019-02-28T03:02:54.306Z,10.87
2019-02-28T03:05:21.651Z,16.20
2019-02-28T03:07:48.917Z,11.67
2019-02-28T03:10:18.002Z,11.40
2019-02-28T03:12:45.752Z,9.87
2019-02-28T03:15:13.555Z,11.03
2019-02-28T03:17:46.534Z,11.47
2019-02-28T03:20:10.390Z,9.87
2019-02-28T03:22:37.729Z,9.80
2019-02-28T03:25:05.336Z,9.93
2019-02-28T03:27:32.569Z,11.77
2019-02-28T03:30:00.414Z,13.13
2019-02-28T03:32:39.701Z,11.17
2019-02-28T03:34:59.173Z,14.70
2019-02-28T03:37:32.833Z,11.77
2019-02-28T03:40:02.420Z,13.10
2019-02-28T03:42:28.630Z,10.40
2019-02-28T03:44:57.074Z,10.40
2019-02-28T03:47:24.146Z,12.60
2019-02-28T03:49:51.635Z,12.27
2019-02-28T03:52:18.955Z,12.10
2019-02-28T03:54:46.197Z,12.40
2019-02-28T03:57:13.762Z,11.27
2019-02-28T03:59:41.144Z,10.60
2019-02-28T04:02:08.785Z,10.33
2019-02-28T04:04:36.047Z,12.83
2019-02-28T04:07:03.289Z,11.70
2019-02-28T04:09:30.845Z,10.23
2019-02-28T04:11:58.101Z,12.00
2019-02-28T04:14:28.601Z,12.87
2019-02-28T04:16:54.608Z,13.13
2019-02-28T04:19:23.077Z,15.40
2019-02-28T04:21:50.477Z,19.60
2019-02-28T04:24:17.808Z,18.30
2019-02-28T04:26:45.035Z,15.20
2019-02-28T04:29:12.350Z,14.83
2019-02-28T04:31:39.634Z,15.80
2019-02-28T04:34:12.956Z,15.63
2019-02-28T04:36:36.584Z,17.40
2019-02-28T04:39:06.264Z,18.43
2019-02-28T04:41:33.921Z,20.03
2019-02-28T04:44:01.044Z,17.10
2019-02-28T04:46:31.825Z,18.30
2019-02-28T04:48:57.752Z,17.23
2019-02-28T04:51:24.977Z,15.33
2019-02-28T04:53:53.003Z,17.33
2019-02-28T04:56:21.144Z,14.60
2019-02-28T04:58:48.564Z,15.40
2019-02-28T05:01:15.807Z,17.97
2019-02-28T05:03:43.387Z,18.93
2019-02-28T05:06:10.636Z,21.10
2019-02-28T05:08:38.971Z,19.43
2019-02-28T05:11:07.291Z,21.70
2019-02-28T05:13:34.423Z,19.67
2019-02-28T05:16:02.017Z,18.90
2019-02-28T05:18:29.233Z,18.87
2019-02-28T05:20:56.811Z,20.23
2019-02-28T05:23:24.372Z,20.03
2019-02-28T05:25:51.987Z,20.03
2019-02-28T05:28:20.053Z,20.13
2019-02-28T05:30:50.217Z,28.77
2019-02-28T05:33:16.425Z,22.30
2019-02-28T05:35:44.009Z,18.20
2019-02-28T05:38:11.229Z,20.13
2019-02-28T05:40:41.325Z,25.17
2019-02-28T05:43:07.811Z,14.43
2019-02-28T05:45:35.063Z,18.00
2019-02-28T05:48:03.899Z,17.93
2019-02-28T05:50:31.789Z,18.67
2019-02-28T05:52:59.376Z,20.20
2019-02-28T05:55:26.600Z,21.20
2019-02-28T05:57:54.135Z,23.23
2019-02-28T06:00:22.660Z,20.90
2019-02-28T06:02:49.907Z,19.00
2019-02-28T06:05:17.480Z,17.80
2019-02-28T06:07:45.037Z,19.17
2019-02-28T06:10:12.595Z,19.07
2019-02-28T06:12:40.443Z,22.60
2019-02-28T06:15:08.996Z,25.93
2019-02-28T06:17:36.237Z,23.63
2019-02-28T06:20:04.435Z,19.17
2019-02-28T06:22:36.121Z,23.67
2019-02-28T06:25:00.916Z,22.13
2019-02-28T06:27:28.135Z,24.60
2019-02-28T06:29:55.595Z,23.83
2019-02-28T06:32:23.537Z,23.13
2019-02-28T06:34:52.036Z,20.87
2019-02-28T06:37:19.640Z,21.60
2019-02-28T06:39:46.862Z,21.10
2019-02-28T06:42:14.959Z,21.87
2019-02-28T06:44:42.229Z,22.53
2019-02-28T06:47:11.297Z,28.20
2019-02-28T06:49:41.843Z,28.40
2019-02-28T06:52:08.061Z,28.53
2019-02-28T06:54:35.283Z,28.73
2019-02-28T06:57:02.547Z,25.97
2019-02-28T06:59:29.761Z,26.43
2019-02-28T07:01:57.765Z,28.60
2019-02-28T07:04:25.478Z,24.17
2019-02-28T07:06:53.321Z,24.13
2019-02-28T07:09:20.548Z,25.17
2019-02-28T07:11:47.884Z,23.30
2019-02-28T07:14:15.114Z,26.13
2019-02-28T07:16:42.370Z,27.37
2019-02-28T07:19:09.795Z,24.80
2019-02-28T07:21:42.964Z,29.47
2019-02-28T07:24:06.851Z,25.60
2019-02-28T07:26:34.511Z,27.37
2019-02-28T07:29:01.731Z,23.50
2019-02-28T07:31:29.321Z,26.70
2019-02-28T07:33:56.895Z,25.40
2019-02-28T07:36:24.136Z,24.40
2019-02-28T07:38:51.370Z,25.30
2019-02-28T07:41:20.292Z,23.27
2019-02-28T07:43:47.764Z,26.03
2019-02-28T07:46:15.296Z,32.90
2019-02-28T07:48:42.513Z,29.53
2019-02-28T07:51:10.138Z,31.33
2019-02-28T07:53:40.929Z,28.37
2019-02-28T07:56:07.884Z,30.53
2019-02-28T07:58:35.528Z,27.97
2019-02-28T08:01:02.779Z,27.63
2019-02-28T08:03:30.385Z,25.23
2019-02-28T08:05:57.601Z,25.93
2019-02-28T08:08:26.468Z,25.23
2019-02-28T08:10:54.291Z,24.70
2019-02-28T08:13:21.520Z,27.17
2019-02-28T08:15:49.154Z,25.10
2019-02-28T08:18:18.908Z,26.40
2019-02-28T08:20:45.922Z,27.80
2019-02-28T08:23:13.145Z,26.97
2019-02-28T08:25:42.853Z,28.33
2019-02-28T08:28:09.902Z,30.43
2019-02-28T08:30:37.219Z,30.20
2019-02-28T08:33:04.461Z,29.70
2019-02-28T08:35:34.865Z,32.47
2019-02-28T08:38:00.892Z,28.33
2019-02-28T08:40:28.120Z,28.67
2019-02-28T08:42:55.366Z,31.10
2019-02-28T08:45:22.954Z,27.80
2019-02-28T08:47:55.453Z,26.63
2019-02-28T08:50:22.527Z,31.57
2019-02-28T08:52:50.188Z,34.10
2019-02-28T08:55:17.395Z,31.40
2019-02-28T08:57:54.168Z,35.63
2019-02-28T09:00:16.248Z,36.30
2019-02-28T09:02:43.861Z,33.07
2019-02-28T09:05:12.148Z,33.53
2019-02-28T09:07:39.680Z,30.30
2019-02-28T09:10:11.733Z,31.87
2019-02-28T09:12:37.653Z,32.10
2019-02-28T09:15:05.684Z,27.80
2019-02-28T09:17:32.910Z,36.10
2019-02-28T09:20:00.230Z,37.67
2019-02-28T09:22:28.159Z,34.23
2019-02-28T09:24:55.584Z,35.10
2019-02-28T09:27:23.130Z,34.13
2019-02-28T09:29:54.466Z,37.77
2019-02-28T09:32:19.877Z,35.63
2019-02-28T09:34:47.096Z,39.93
2019-02-28T09:37:14.687Z,36.57
2019-02-28T09:39:42.253Z,37.87
2019-02-28T09:42:14.808Z,35.67
2019-02-28T09:44:38.941Z,38.77
2019-02-28T09:47:06.159Z,39.73
2019-02-28T09:49:33.714Z,38.70
2019-02-28T09:52:03.173Z,42.00
2019-02-28T09:54:30.090Z,38.57
2019-02-28T09:56:57.304Z,37.07
2019-02-28T09:59:24.871Z,42.93
2019-02-28T10:02:00.916Z,44.43
2019-02-28T10:04:21.235Z,42.43
2019-02-28T10:06:48.496Z,48.37
2019-02-28T10:09:17.752Z,43.53
2019-02-28T10:11:45.117Z,45.83
2019-02-28T10:14:12.676Z,47.07
2019-02-28T10:16:39.901Z,42.60
2019-02-28T10:19:10.178Z,45.40
2019-02-28T10:21:39.494Z,47.07
2019-02-28T10:24:06.112Z,47.70
2019-02-28T10:26:33.652Z,44.97
2019-02-28T10:29:01.277Z,47.53
2019-02-28T10:31:36.193Z,43.90
2019-02-28T10:33:58.209Z,45.90
2019-02-28T10:36:25.752Z,48.87
2019-02-28T10:38:52.872Z,46.20
2019-02-28T10:41:20.436Z,43.57
2019-02-28T10:43:52.089Z,48.37
2019-02-28T10:46:20.106Z,45.43
2019-02-28T10:48:50.847Z,37.03
2019-02-28T10:51:15.059Z,34.03
2019-02-28T10:53:42.635Z,40.80
2019-02-28T10:56:10.053Z,38.23
2019-02-28T10:58:37.272Z,42.87
2019-02-28T11:01:08.716Z,39.93
2019-02-28T11:03:36.246Z,39.60
2019-02-28T11:06:03.809Z,39.13
2019-02-28T11:08:31.025Z,41.47
2019-02-28T11:10:58.481Z,39.37
2019-02-28T11:13:28.481Z,37.43
2019-02-28T11:15:55.481Z,37.23
2019-02-28T11:18:22.803Z,36.00
2019-02-28T11:20:50.047Z,37.17
2019-02-28T11:23:17.685Z,35.07
2019-02-28T11:25:45.612Z,35.83
2019-02-28T11:28:13.581Z,35.20
2019-02-28T11:30:44.651Z,34.43
2019-02-28T11:33:11.568Z,34.57
2019-02-28T11:35:38.887Z,36.83
2019-02-28T11:38:06.245Z,33.33
2019-02-28T11:40:34.063Z,33.57
2019-02-28T11:43:02.644Z,33.60
2019-02-28T11:45:31.172Z,32.67
2019-02-28T11:47:59.900Z,33.47
2019-02-28T11:50:27.120Z,37.33
2019-02-28T11:52:54.348Z,34.60
2019-02-28T11:55:21.477Z,34.37
2019-02-28T11:57:48.997Z,36.60
2019-02-28T12:00:19.471Z,40.83
2019-02-28T12:02:53.044Z,35.77
2019-02-28T12:05:16.546Z,20.70
2019-02-28T12:07:44.263Z,26.23
2019-02-28T12:10:12.612Z,29.20
2019-02-28T12:12:41.555Z,29.17
2019-02-28T12:15:10.928Z,27.27
2019-02-28T12:17:38.215Z,32.63
2019-02-28T12:20:07.287Z,30.77
2019-02-28T12:22:34.625Z,25.63
2019-02-28T12:25:04.565Z,28.23
2019-02-28T12:27:31.140Z,30.63
2019-02-28T12:29:59.923Z,28.70
2019-02-28T12:32:27.192Z,27.00
2019-02-28T12:34:54.428Z,32.73
2019-02-28T12:37:22.243Z,29.40
2019-02-28T12:39:50.439Z,24.57
2019-02-28T12:42:17.969Z,28.13
2019-02-28T12:44:46.233Z,28.70
2019-02-28T12:47:14.005Z,32.10
2019-02-28T12:49:41.561Z,31.70
2019-02-28T12:52:11.241Z,29.13
2019-02-28T12:54:38.285Z,27.87
2019-02-28T12:57:05.784Z,24.70
2019-02-28T12:59:34.760Z,29.93
2019-02-28T13:02:07.337Z,30.00
2019-02-28T13:04:32.516Z,33.37
2019-02-28T13:07:01.731Z,27.37
2019-02-28T13:09:30.294Z,29.20
2019-02-28T13:11:57.987Z,29.63
2019-02-28T13:14:25.233Z,29.63
2019-02-28T13:16:54.602Z,32.93
2019-02-28T13:19:21.700Z,32.20
2019-02-28T13:21:48.927Z,28.80
2019-02-28T13:24:16.260Z,31.10
2019-02-28T13:26:43.488Z,35.93
2019-02-28T13:29:10.719Z,28.73
2019-02-28T13:31:37.943Z,30.80
2019-02-28T13:34:05.613Z,32.17
2019-02-28T13:36:33.502Z,33.03
2019-02-28T13:39:00.822Z,36.00
2019-02-28T13:41:28.117Z,29.63
2019-02-28T13:43:59.307Z,32.80
2019-02-28T13:46:32.414Z,34.43
2019-02-28T13:48:54.340Z,29.83
2019-02-28T13:51:21.587Z,30.00
2019-02-28T13:53:48.816Z,32.37
2019-02-28T13:56:17.986Z,32.20
2019-02-28T13:58:45.456Z,31.87
2019-02-28T14:01:12.703Z,32.70
2019-02-28T14:03:42.326Z,34.50
2019-02-28T14:06:11.649Z,32.03
2019-02-28T14:08:38.205Z,32.70
2019-02-28T14:11:10.114Z,33.03
2019-02-28T14:13:35.372Z,36.03
2019-02-28T14:16:02.616Z,32.83
2019-02-28T14:18:30.172Z,29.57
2019-02-28T14:20:59.499Z,28.47
2019-02-28T14:23:26.665Z,28.93
2019-02-28T14:25:54.179Z,30.87
2019-02-28T14:28:21.739Z,33.97
2019-02-28T14:30:48.983Z,29.47
2019-02-28T14:33:19.371Z,28.57
2019-02-28T14:35:45.644Z,26.57
2019-02-28T14:38:12.868Z,25.57
2019-02-28T14:40:40.112Z,29.93
2019-02-28T14:43:07.338Z,32.63
2019-02-28T14:45:34.941Z,27.63
2019-02-28T14:48:04.140Z,32.47
2019-02-28T14:50:31.308Z,29.40
2019-02-28T14:52:58.537Z,26.23
2019-02-28T14:55:26.076Z,21.70
2019-02-28T14:57:55.223Z,25.33
2019-02-28T15:00:26.920Z,21.63
2019-02-28T15:02:54.236Z,24.10
2019-02-28T15:05:21.808Z,20.63
2019-02-28T15:07:49.108Z,22.60
2019-02-28T15:10:17.191Z,27.97
2019-02-28T15:12:44.420Z,25.13
2019-02-28T15:15:14.866Z,26.20
2019-02-28T15:17:43.181Z,28.00
2019-02-28T15:20:13.346Z,33.53
2019-02-28T15:22:40.121Z,29.43
2019-02-28T15:25:08.749Z,33.17
2019-02-28T15:27:39.068Z,28.63
2019-02-28T15:30:14.446Z,32.50
2019-02-28T15:32:41.923Z,30.60
2019-02-28T15:35:12.493Z,34.03
2019-02-28T15:37:40.633Z,29.97
2019-02-28T15:40:10.136Z,37.93
2019-02-28T15:42:39.723Z,30.47
2019-02-28T15:45:07.351Z,25.87
2019-02-28T15:47:34.623Z,24.37
2019-02-28T15:50:01.970Z,29.20
2019-02-28T15:52:29.217Z,28.30
2019-02-28T15:54:57.751Z,27.53
2019-02-28T15:57:26.852Z,28.37
2019-02-28T15:59:54.719Z,23.63
2019-02-28T16:02:21.988Z,21.97
2019-02-28T16:04:49.204Z,25.00
2019-02-28T16:07:16.764Z,18.27
2019-02-28T16:09:43.989Z,17.67
2019-02-28T16:12:12.516Z,15.10
2019-02-28T16:14:40.592Z,14.70
2019-02-28T16:17:08.125Z,13.67
2019-02-28T16:19:35.687Z,15.90
2019-02-28T16:22:03.245Z,15.33
2019-02-28T16:24:30.459Z,19.77
2019-02-28T16:26:58.023Z,17.97
2019-02-28T16:29:25.424Z,18.13
2019-02-28T16:31:52.971Z,20.77
2019-02-28T16:34:20.271Z,17.50
2019-02-28T16:36:47.880Z,19.40
2019-02-28T16:39:16.900Z,21.63
2019-02-28T16:41:44.540Z,18.77
2019-02-28T16:44:11.785Z,18.97
2019-02-28T16:46:39.028Z,16.60
2019-02-28T16:49:07.415Z,17.10
2019-02-28T16:51:35.700Z,18.57
2019-02-28T16:54:02.921Z,20.83
2019-02-28T16:56:30.223Z,20.50
2019-02-28T16:58:58.105Z,19.03
2019-02-28T17:01:25.831Z,16.90
2019-02-28T17:03:53.060Z,18.80
2019-02-28T17:06:20.328Z,20.83
2019-02-28T17:09:15.256Z,20.00
2019-02-28T17:11:51.160Z,15.80
2019-02-28T17:14:18.079Z,19.50
2019-02-28T17:16:53.369Z,19.90
2019-02-28T17:19:20.930Z,18.30
2019-02-28T17:21:48.728Z,17.23
2019-02-28T17:24:17.300Z,18.03
2019-02-28T17:27:02.400Z,18.20
2019-02-28T17:29:49.169Z,17.07
2019-02-28T17:32:16.508Z,17.83
2019-02-28T17:34:43.733Z,15.93
2019-02-28T17:37:11.320Z,18.27
2019-02-28T17:39:38.582Z,15.57
2019-02-28T17:42:08.488Z,15.87
2019-02-28T17:45:00.336Z,20.00
2019-02-28T17:48:16.032Z,18.97
2019-02-28T17:51:07.527Z,19.93
2019-02-28T17:54:06.311Z,18.87
2019-02-28T17:57:09.277Z,20.27
2019-02-28T17:59:47.728Z,20.97
2019-02-28T18:02:47.126Z,19.37
2019-02-28T18:06:05.338Z,20.63
2019-02-28T18:08:50.414Z,19.83
2019-02-28T18:11:54.569Z,21.47
2019-02-28T18:15:12.088Z,21.10
2019-02-28T18:18:26.540Z,26.00
2019-02-28T18:21:04.628Z,22.30
2019-02-28T18:24:10.551Z,23.53
2019-02-28T18:26:52.157Z,25.73
2019-02-28T18:29:36.560Z,24.47
2019-02-28T18:32:03.793Z,26.33
2019-02-28T18:34:33.388Z,23.13
2019-02-28T18:37:00.620Z,23.20
2019-02-28T18:39:27.836Z,22.43
2019-02-28T18:41:55.056Z,23.13
2019-02-28T18:44:22.366Z,21.77
2019-02-28T18:46:49.590Z,28.13
2019-02-28T18:49:16.846Z,25.23
2019-02-28T18:51:44.271Z,25.73
2019-02-28T18:54:11.524Z,22.00
2019-02-28T18:56:38.749Z,19.90
2019-02-28T18:59:06.006Z,23.10
2019-02-28T19:01:33.233Z,19.57
2019-02-28T19:04:00.839Z,21.87
2019-02-28T19:06:28.059Z,21.83
2019-02-28T19:08:58.982Z,21.80
2019-02-28T19:11:26.586Z,22.27
2019-02-28T19:13:53.845Z,21.10
2019-02-28T19:16:21.088Z,21.50
2019-02-28T19:18:48.339Z,20.87
2019-02-28T19:21:15.907Z,20.33
2019-02-28T19:23:43.168Z,17.10
2019-02-28T19:26:10.407Z,22.17
2019-02-28T19:28:38.280Z,19.97
2019-02-28T19:31:05.525Z,18.43
2019-02-28T19:33:35.402Z,16.90
2019-02-28T19:36:02.387Z,15.40
2019-02-28T19:38:30.045Z,20.60
2019-02-28T19:40:57.264Z,16.87
2019-02-28T19:43:24.480Z,17.53
2019-02-28T19:45:52.777Z,24.13
2019-02-28T19:48:20.283Z,15.40
2019-02-28T19:50:47.500Z,18.27
2019-02-28T19:53:14.993Z,15.40
2019-02-28T19:55:42.579Z,17.33
2019-02-28T19:58:12.175Z,20.13
2019-02-28T20:00:39.417Z,17.47
2019-02-28T20:03:06.642Z,14.50
2019-02-28T20:05:34.222Z,18.77
2019-02-28T20:08:01.771Z,13.67
2019-02-28T20:10:29.340Z,15.07
2019-02-28T20:12:56.574Z,16.97
2019-02-28T20:15:26.468Z,16.67
2019-02-28T20:17:53.696Z,14.53
2019-02-28T20:20:21.074Z,11.33
2019-02-28T20:22:48.300Z,19.53
2019-02-28T20:25:16.156Z,19.50
2019-02-28T20:27:43.377Z,11.97
2019-02-28T20:30:12.973Z,14.03
2019-02-28T20:32:40.204Z,15.23
2019-02-28T20:35:07.695Z,13.00
2019-02-28T20:37:34.911Z,19.10
2019-02-28T20:40:02.888Z,16.00
2019-02-28T20:42:30.016Z,12.80
2019-02-28T20:44:57.293Z,17.43
2019-02-28T20:47:24.523Z,12.83
2019-02-28T20:49:52.225Z,17.33
2019-02-28T20:52:19.793Z,16.33
2019-02-28T20:54:47.137Z,15.73
2019-02-28T20:57:14.695Z,12.20
2019-02-28T20:59:42.152Z,16.67
2019-02-28T21:02:09.708Z,14.60
2019-02-28T21:04:36.961Z,14.60
2019-02-28T21:07:04.183Z,14.00
2019-02-28T21:09:31.781Z,11.53
2019-02-28T21:11:59.337Z,17.93
2019-02-28T21:14:26.916Z,14.03
2019-02-28T21:16:54.141Z,12.07
2019-02-28T21:19:21.352Z,14.73
2019-02-28T21:21:48.575Z,12.07
2019-02-28T21:24:16.105Z,15.67
2019-02-28T21:26:43.360Z,15.07
2019-02-28T21:29:10.571Z,14.17
2019-02-28T21:31:37.800Z,15.87
2019-02-28T21:34:05.033Z,16.00
2019-02-28T21:36:32.494Z,18.63
2019-02-28T21:38:59.711Z,12.73
2019-02-28T21:41:26.935Z,18.53
2019-02-28T21:43:54.155Z,13.77
2019-02-28T21:46:21.772Z,14.80
2019-02-28T21:48:49.012Z,14.67
2019-02-28T21:51:16.587Z,14.87
2019-02-28T21:53:43.804Z,15.47
2019-02-28T21:56:11.304Z,17.03
2019-02-28T21:58:38.520Z,20.03
2019-02-28T22:01:06.208Z,15.90
2019-02-28T22:03:33.767Z,22.53
2019-02-28T22:06:01.009Z,22.30
2019-02-28T22:08:28.233Z,26.57
2019-02-28T22:10:55.935Z,20.70
2019-02-28T22:13:23.164Z,22.17
2019-02-28T22:15:50.759Z,15.23
2019-02-28T22:18:18.305Z,22.47
2019-02-28T22:20:45.567Z,18.47
2019-02-28T22:23:12.792Z,12.97
2019-02-28T22:25:40.059Z,13.37
2019-02-28T22:28:07.280Z,19.93
2019-02-28T22:30:56.626Z,18.63
2019-02-28T22:33:36.924Z,16.20
2019-02-28T22:36:04.350Z,18.43
2019-02-28T22:38:31.985Z,16.73
2019-02-28T22:40:59.227Z,16.37
2019-02-28T22:43:26.448Z,13.70
2019-02-28T22:45:54.020Z,13.40
2019-02-28T22:48:21.246Z,14.30
2019-02-28T22:50:48.511Z,16.60
2019-02-28T22:53:15.822Z,18.33
2019-02-28T22:55:43.037Z,17.87
2019-02-28T22:58:10.279Z,13.27
2019-02-28T23:00:57.783Z,11.30
2019-02-28T23:03:25.975Z,11.00
2019-02-28T23:05:53.541Z,13.60
2019-02-28T23:08:20.752Z,13.13
2019-02-28T23:10:47.968Z,12.23
2019-02-28T23:13:15.194Z,9.70
2019-02-28T23:15:42.744Z,11.93
2019-02-28T23:18:09.959Z,13.63
2019-02-28T23:20:37.179Z,11.00
2019-02-28T23:23:04.436Z,8.80
2019-02-28T23:25:32.369Z,10.33
2019-02-28T23:28:10.984Z,10.73
2019-02-28T23:31:12.080Z,10.23
2019-02-28T23:33:39.693Z,10.80
2019-02-28T23:36:07.047Z,9.23
2019-02-28T23:38:34.277Z,12.43
2019-02-28T23:41:02.812Z,10.37
2019-02-28T23:43:30.335Z,8.83
2019-02-28T23:45:57.549Z,14.20
2019-02-28T23:48:24.763Z,11.80
2019-02-28T23:50:51.980Z,9.03
2019-02-28T23:53:19.201Z,12.40
2019-02-28T23:55:46.699Z,10.10
2019-02-28T23:58:13.915Z,10.83
